sensor_id;sensor_type;location;lat;lon;timestamp;pressure;altitude;pressure_sealevel;temperature;humidity
17649;BME280;8943;51.110;-4.158;2023-04-03T00:00:00;102586.97;;;11.66;58.82
17649;BME280;8943;51.110;-4.158;2023-04-03T00:02:29;102584.47;;;11.63;59.13
17649;BME280;8943;51.110;-4.158;2023-04-03T00:04:58;102589.00;;;11.60;59.07
17649;BME280;8943;51.110;-4.158;2023-04-03T00:07:27;102585.47;;;11.60;58.98
17649;BME280;8943;51.110;-4.158;2023-04-03T00:09:55;102586.56;;;11.56;58.91
17649;BME280;8943;51.110;-4.158;2023-04-03T00:12:23;102581.31;;;11.54;58.76
17649;BME280;8943;51.110;-4.158;2023-04-03T00:14:55;102584.06;;;11.53;58.92
17649;BME280;8943;51.110;-4.158;2023-04-03T00:17:24;102594.00;;;11.49;59.11
17649;BME280;8943;51.110;-4.158;2023-04-03T00:19:54;102593.22;;;11.47;59.12
17649;BME280;8943;51.110;-4.158;2023-04-03T00:22:22;102585.34;;;11.44;59.03
17649;BME280;8943;51.110;-4.158;2023-04-03T00:24:54;102585.47;;;11.41;58.86
17649;BME280;8943;51.110;-4.158;2023-04-03T00:27:24;102579.50;;;11.36;59.07
17649;BME280;8943;51.110;-4.158;2023-04-03T00:29:55;102579.88;;;11.28;58.96
17649;BME280;8943;51.110;-4.158;2023-04-03T00:32:23;102571.06;;;11.26;59.08
17649;BME280;8943;51.110;-4.158;2023-04-03T00:34:56;102579.22;;;11.23;58.78
17649;BME280;8943;51.110;-4.158;2023-04-03T00:37:25;102572.38;;;11.18;59.13
17649;BME280;8943;51.110;-4.158;2023-04-03T00:39:54;102567.16;;;11.15;58.85
17649;BME280;8943;51.110;-4.158;2023-04-03T00:42:25;102569.09;;;11.11;58.67
17649;BME280;8943;51.110;-4.158;2023-04-03T00:45:31;102572.78;;;11.08;58.86
17649;BME280;8943;51.110;-4.158;2023-04-03T00:48:01;102568.66;;;11.01;58.99
17649;BME280;8943;51.110;-4.158;2023-04-03T00:50:34;102567.72;;;11.02;59.04
17649;BME280;8943;51.110;-4.158;2023-04-03T00:53:06;102568.75;;;11.00;58.67
17649;BME280;8943;51.110;-4.158;2023-04-03T00:55:38;102563.50;;;10.98;58.70
17649;BME280;8943;51.110;-4.158;2023-04-03T00:58:07;102558.16;;;10.98;58.58
17649;BME280;8943;51.110;-4.158;2023-04-03T01:00:39;102559.34;;;10.91;58.75
17649;BME280;8943;51.110;-4.158;2023-04-03T01:03:09;102562.97;;;10.90;58.74
17649;BME280;8943;51.110;-4.158;2023-04-03T01:05:37;102571.91;;;10.89;59.13
17649;BME280;8943;51.110;-4.158;2023-04-03T01:08:06;102570.31;;;10.85;59.07
17649;BME280;8943;51.110;-4.158;2023-04-03T01:10:34;102568.56;;;10.84;59.00
17649;BME280;8943;51.110;-4.158;2023-04-03T01:13:18;102565.09;;;10.82;58.73
17649;BME280;8943;51.110;-4.158;2023-04-03T01:15:48;102568.69;;;10.81;59.30
17649;BME280;8943;51.110;-4.158;2023-04-03T01:18:17;102568.69;;;10.81;58.88
17649;BME280;8943;51.110;-4.158;2023-04-03T01:26:40;102557.38;;;10.76;58.88
17649;BME280;8943;51.110;-4.158;2023-04-03T01:29:09;102553.94;;;10.74;59.06
17649;BME280;8943;51.110;-4.158;2023-04-03T01:32:00;102555.00;;;10.70;58.97
17649;BME280;8943;51.110;-4.158;2023-04-03T01:34:55;102551.50;;;10.68;58.92
17649;BME280;8943;51.110;-4.158;2023-04-03T01:37:51;102554.34;;;10.65;58.93
17649;BME280;8943;51.110;-4.158;2023-04-03T01:40:27;102551.78;;;10.62;58.95
17649;BME280;8943;51.110;-4.158;2023-04-03T01:43:13;102548.19;;;10.63;59.00
17649;BME280;8943;51.110;-4.158;2023-04-03T01:46:00;102552.66;;;10.62;58.96
17649;BME280;8943;51.110;-4.158;2023-04-03T01:48:46;102547.53;;;10.57;59.08
17649;BME280;8943;51.110;-4.158;2023-04-03T01:51:31;102537.81;;;10.56;58.89
17649;BME280;8943;51.110;-4.158;2023-04-03T01:54:03;102546.75;;;10.55;58.82
17649;BME280;8943;51.110;-4.158;2023-04-03T01:56:38;102547.72;;;10.53;59.10
17649;BME280;8943;51.110;-4.158;2023-04-03T01:59:10;102546.09;;;10.50;59.24
17649;BME280;8943;51.110;-4.158;2023-04-03T02:01:56;102545.25;;;10.48;59.29
17649;BME280;8943;51.110;-4.158;2023-04-03T02:05:05;102546.28;;;10.46;59.27
17649;BME280;8943;51.110;-4.158;2023-04-03T02:07:53;102551.69;;;10.44;58.57
17649;BME280;8943;51.110;-4.158;2023-04-03T02:10:40;102532.34;;;10.39;59.05
17649;BME280;8943;51.110;-4.158;2023-04-03T02:13:10;102530.69;;;10.37;58.86
17649;BME280;8943;51.110;-4.158;2023-04-03T02:15:40;102538.88;;;10.32;58.76
17649;BME280;8943;51.110;-4.158;2023-04-03T02:18:12;102540.59;;;10.33;58.66
17649;BME280;8943;51.110;-4.158;2023-04-03T02:20:45;102536.34;;;10.29;58.88
17649;BME280;8943;51.110;-4.158;2023-04-03T02:23:23;102529.38;;;10.26;58.79
17649;BME280;8943;51.110;-4.158;2023-04-03T02:26:03;102526.78;;;10.23;58.82
17649;BME280;8943;51.110;-4.158;2023-04-03T02:28:37;102528.53;;;10.24;59.09
17649;BME280;8943;51.110;-4.158;2023-04-03T02:31:08;102534.78;;;10.23;59.08
17649;BME280;8943;51.110;-4.158;2023-04-03T02:33:40;102538.38;;;10.22;58.90
17649;BME280;8943;51.110;-4.158;2023-04-03T02:36:26;102536.66;;;10.21;58.84
17649;BME280;8943;51.110;-4.158;2023-04-03T02:39:25;102534.94;;;10.20;58.88
17649;BME280;8943;51.110;-4.158;2023-04-03T02:42:16;102531.38;;;10.20;58.75
17649;BME280;8943;51.110;-4.158;2023-04-03T02:45:18;102526.97;;;10.19;59.29
17649;BME280;8943;51.110;-4.158;2023-04-03T02:48:57;102527.91;;;10.18;58.87
17649;BME280;8943;51.110;-4.158;2023-04-03T03:13:04;102516.44;;;9.95;58.60
17649;BME280;8943;51.110;-4.158;2023-04-03T03:16:04;102512.97;;;9.93;58.68
17649;BME280;8943;51.110;-4.158;2023-04-03T03:19:07;102503.38;;;9.89;58.65
17649;BME280;8943;51.110;-4.158;2023-04-03T03:22:04;102504.41;;;9.87;58.64
17649;BME280;8943;51.110;-4.158;2023-04-03T03:24:49;102488.53;;;9.84;58.61
17649;BME280;8943;51.110;-4.158;2023-04-03T03:28:21;102494.72;;;9.84;59.02
17649;BME280;8943;51.110;-4.158;2023-04-03T03:31:35;102478.81;;;9.83;58.91
17649;BME280;8943;51.110;-4.158;2023-04-03T03:34:41;102488.63;;;9.82;58.72
17649;BME280;8943;51.110;-4.158;2023-04-03T03:37:48;102485.09;;;9.82;58.63
17649;BME280;8943;51.110;-4.158;2023-04-03T03:40:48;102482.47;;;9.80;58.64
17649;BME280;8943;51.110;-4.158;2023-04-03T03:43:21;102485.22;;;9.78;58.98
17649;BME280;8943;51.110;-4.158;2023-04-03T03:46:10;102482.63;;;9.77;58.83
17649;BME280;8943;51.110;-4.158;2023-04-03T03:48:50;102487.13;;;9.75;59.01
17649;BME280;8943;51.110;-4.158;2023-04-03T03:51:19;102481.88;;;9.73;58.87
17649;BME280;8943;51.110;-4.158;2023-04-03T03:53:48;102477.53;;;9.71;58.83
17649;BME280;8943;51.110;-4.158;2023-04-03T03:56:21;102474.94;;;9.69;59.00
17649;BME280;8943;51.110;-4.158;2023-04-03T03:58:55;102467.03;;;9.68;58.66
17649;BME280;8943;51.110;-4.158;2023-04-03T04:01:24;102473.28;;;9.67;59.13
17649;BME280;8943;51.110;-4.158;2023-04-03T04:03:53;102476.00;;;9.65;58.77
17649;BME280;8943;51.110;-4.158;2023-04-03T04:06:28;102467.22;;;9.63;59.15
17649;BME280;8943;51.110;-4.158;2023-04-03T04:08:57;102472.41;;;9.66;58.99
17649;BME280;8943;51.110;-4.158;2023-04-03T04:11:31;102472.47;;;9.65;58.92
17649;BME280;8943;51.110;-4.158;2023-04-03T04:14:03;102475.09;;;9.66;58.74
17649;BME280;8943;51.110;-4.158;2023-04-03T04:16:33;102476.75;;;9.69;58.89
17649;BME280;8943;51.110;-4.158;2023-04-03T04:19:02;102474.16;;;9.67;59.13
17649;BME280;8943;51.110;-4.158;2023-04-03T04:21:33;102464.38;;;9.68;59.14
17649;BME280;8943;51.110;-4.158;2023-04-03T04:24:03;102467.88;;;9.68;58.90
17649;BME280;8943;51.110;-4.158;2023-04-03T04:26:40;102462.50;;;9.70;58.87
17649;BME280;8943;51.110;-4.158;2023-04-03T04:29:15;102473.22;;;9.68;58.86
17649;BME280;8943;51.110;-4.158;2023-04-03T04:31:45;102461.81;;;9.65;58.94
17649;BME280;8943;51.110;-4.158;2023-04-03T04:34:13;102449.44;;;9.64;59.16
17649;BME280;8943;51.110;-4.158;2023-04-03T04:36:43;102451.38;;;9.60;59.04
17649;BME280;8943;51.110;-4.158;2023-04-03T04:39:13;102449.56;;;9.61;58.99
17649;BME280;8943;51.110;-4.158;2023-04-03T04:41:45;102451.44;;;9.59;59.04
17649;BME280;8943;51.110;-4.158;2023-04-03T04:48:00;102448.09;;;9.53;59.06
17649;BME280;8943;51.110;-4.158;2023-04-03T04:50:36;102434.78;;;9.53;58.93
17649;BME280;8943;51.110;-4.158;2023-04-03T04:53:32;102428.66;;;9.51;59.34
17649;BME280;8943;51.110;-4.158;2023-04-03T04:56:15;102432.13;;;9.53;59.24
17649;BME280;8943;51.110;-4.158;2023-04-03T04:58:48;102437.47;;;9.53;59.17
17649;BME280;8943;51.110;-4.158;2023-04-03T05:01:18;102436.53;;;9.54;59.31
17649;BME280;8943;51.110;-4.158;2023-04-03T05:04:16;102427.69;;;9.54;59.03
17649;BME280;8943;51.110;-4.158;2023-04-03T05:07:00;102428.53;;;9.54;59.40
17649;BME280;8943;51.110;-4.158;2023-04-03T05:09:33;102426.75;;;9.55;59.17
17649;BME280;8943;51.110;-4.158;2023-04-03T05:12:37;102438.19;;;9.57;59.40
17649;BME280;8943;51.110;-4.158;2023-04-03T05:15:23;102433.75;;;9.58;59.40
17649;BME280;8943;51.110;-4.158;2023-04-03T05:18:09;102429.22;;;9.60;59.40
17649;BME280;8943;51.110;-4.158;2023-04-03T05:21:11;102432.69;;;9.62;59.28
17649;BME280;8943;51.110;-4.158;2023-04-03T05:24:10;102443.25;;;9.63;59.43
17649;BME280;8943;51.110;-4.158;2023-04-03T05:26:50;102444.91;;;9.66;59.37
17649;BME280;8943;51.110;-4.158;2023-04-03T05:29:36;102448.41;;;9.68;59.42
17649;BME280;8943;51.110;-4.158;2023-04-03T05:32:24;102448.25;;;9.71;59.77
17649;BME280;8943;51.110;-4.158;2023-04-03T05:34:55;102452.59;;;9.73;59.67
17649;BME280;8943;51.110;-4.158;2023-04-03T05:37:35;102448.78;;;9.79;59.83
17649;BME280;8943;51.110;-4.158;2023-04-03T05:40:26;102458.31;;;9.85;60.12
17649;BME280;8943;51.110;-4.158;2023-04-03T05:43:22;102452.59;;;9.94;59.98
17649;BME280;8943;51.110;-4.158;2023-04-03T05:46:09;102451.41;;;10.01;60.49
17649;BME280;8943;51.110;-4.158;2023-04-03T05:48:42;102456.41;;;10.09;60.35
17649;BME280;8943;51.110;-4.158;2023-04-03T05:51:14;102457.00;;;10.15;60.49
17649;BME280;8943;51.110;-4.158;2023-04-03T05:53:48;102453.34;;;10.18;60.39
17649;BME280;8943;51.110;-4.158;2023-04-03T05:56:20;102453.13;;;10.22;60.14
17649;BME280;8943;51.110;-4.158;2023-04-03T05:58:51;102461.91;;;10.26;60.23
17649;BME280;8943;51.110;-4.158;2023-04-03T06:01:21;102465.41;;;10.26;60.31
17649;BME280;8943;51.110;-4.158;2023-04-03T06:03:53;102466.28;;;10.27;60.10
17649;BME280;8943;51.110;-4.158;2023-04-03T06:06:25;102469.72;;;10.29;60.21
17649;BME280;8943;51.110;-4.158;2023-04-03T06:08:55;102467.03;;;10.30;60.10
17649;BME280;8943;51.110;-4.158;2023-04-03T06:11:23;102477.41;;;10.37;60.56
17649;BME280;8943;51.110;-4.158;2023-04-03T06:13:52;102466.63;;;10.40;60.85
17649;BME280;8943;51.110;-4.158;2023-04-03T06:16:21;102481.47;;;10.45;60.74
17649;BME280;8943;51.110;-4.158;2023-04-03T06:18:50;102475.06;;;10.49;60.54
17649;BME280;8943;51.110;-4.158;2023-04-03T06:21:18;102472.16;;;10.54;60.79
17649;BME280;8943;51.110;-4.158;2023-04-03T06:23:47;102478.22;;;10.57;60.63
17649;BME280;8943;51.110;-4.158;2023-04-03T06:26:18;102481.63;;;10.61;60.78
17649;BME280;8943;51.110;-4.158;2023-04-03T06:28:48;102476.22;;;10.63;60.61
17649;BME280;8943;51.110;-4.158;2023-04-03T06:31:17;102493.03;;;10.65;60.36
17649;BME280;8943;51.110;-4.158;2023-04-03T06:33:47;102487.53;;;10.68;60.66
17649;BME280;8943;51.110;-4.158;2023-04-03T06:36:33;102486.63;;;10.69;60.45
17649;BME280;8943;51.110;-4.158;2023-04-03T06:39:04;102491.94;;;10.69;60.59
17649;BME280;8943;51.110;-4.158;2023-04-03T06:41:35;102483.13;;;10.67;60.34
17649;BME280;8943;51.110;-4.158;2023-04-03T06:44:04;102486.63;;;10.69;60.58
17649;BME280;8943;51.110;-4.158;2023-04-03T06:46:33;102490.28;;;10.66;60.60
17649;BME280;8943;51.110;-4.158;2023-04-03T06:49:02;102487.53;;;10.68;60.72
17649;BME280;8943;51.110;-4.158;2023-04-03T06:51:36;102495.53;;;10.68;60.37
17649;BME280;8943;51.110;-4.158;2023-04-03T06:54:09;102500.72;;;10.71;60.73
17649;BME280;8943;51.110;-4.158;2023-04-03T06:56:45;102499.78;;;10.72;60.25
17649;BME280;8943;51.110;-4.158;2023-04-03T06:59:15;102499.78;;;10.72;60.72
17649;BME280;8943;51.110;-4.158;2023-04-03T07:01:45;102493.31;;;10.77;60.88
17649;BME280;8943;51.110;-4.158;2023-04-03T07:04:14;102498.59;;;10.79;61.03
17649;BME280;8943;51.110;-4.158;2023-04-03T07:06:45;102498.44;;;10.82;60.54
17649;BME280;8943;51.110;-4.158;2023-04-03T07:09:16;102509.75;;;10.87;60.79
17649;BME280;8943;51.110;-4.158;2023-04-03T07:11:48;102509.53;;;10.92;60.93
17649;BME280;8943;51.110;-4.158;2023-04-03T07:14:18;102502.25;;;10.95;61.09
17649;BME280;8943;51.110;-4.158;2023-04-03T07:16:48;102506.44;;;11.01;61.33
17649;BME280;8943;51.110;-4.158;2023-04-03T07:19:27;102508.03;;;11.05;61.13
17649;BME280;8943;51.110;-4.158;2023-04-03T07:21:57;102510.63;;;11.06;61.17
17649;BME280;8943;51.110;-4.158;2023-04-03T07:24:33;102516.59;;;11.12;61.05
17649;BME280;8943;51.110;-4.158;2023-04-03T07:27:27;102519.13;;;11.15;61.21
17649;BME280;8943;51.110;-4.158;2023-04-03T07:29:56;102523.53;;;11.16;61.19
17649;BME280;8943;51.110;-4.158;2023-04-03T07:32:39;102531.41;;;11.19;61.13
17649;BME280;8943;51.110;-4.158;2023-04-03T07:35:23;102529.38;;;11.24;61.06
17649;BME280;8943;51.110;-4.158;2023-04-03T07:38:00;102531.88;;;11.27;61.05
17649;BME280;8943;51.110;-4.158;2023-04-03T07:40:33;102537.88;;;11.32;61.07
17649;BME280;8943;51.110;-4.158;2023-04-03T07:43:06;102530.69;;;11.34;60.88
17649;BME280;8943;51.110;-4.158;2023-04-03T07:45:37;102525.22;;;11.37;61.26
17649;BME280;8943;51.110;-4.158;2023-04-03T07:48:24;102530.53;;;11.37;60.94
17649;BME280;8943;51.110;-4.158;2023-04-03T07:50:59;102530.38;;;11.40;61.35
17649;BME280;8943;51.110;-4.158;2023-04-03T07:53:38;102526.75;;;11.41;61.03
17649;BME280;8943;51.110;-4.158;2023-04-03T07:56:21;102529.38;;;11.43;61.37
17649;BME280;8943;51.110;-4.158;2023-04-03T08:02:15;102521.16;;;11.47;61.42
17649;BME280;8943;51.110;-4.158;2023-04-03T08:13:19;102531.31;;;11.58;61.49
17649;BME280;8943;51.110;-4.158;2023-04-03T08:15:47;102535.56;;;11.62;61.53
17649;BME280;8943;51.110;-4.158;2023-04-03T08:18:18;102540.69;;;11.67;61.43
17649;BME280;8943;51.110;-4.158;2023-04-03T08:20:48;102534.53;;;11.65;61.26
17649;BME280;8943;51.110;-4.158;2023-04-03T08:23:17;102525.75;;;11.63;61.24
17649;BME280;8943;51.110;-4.158;2023-04-03T08:25:46;102530.22;;;11.62;60.84
17649;BME280;8943;51.110;-4.158;2023-04-03T08:28:15;102535.69;;;11.59;61.04
17649;BME280;8943;51.110;-4.158;2023-04-03T08:30:44;102522.44;;;11.57;60.85
17649;BME280;8943;51.110;-4.158;2023-04-03T08:33:13;102524.25;;;11.57;60.70
17649;BME280;8943;51.110;-4.158;2023-04-03T08:35:43;102524.28;;;11.55;61.01
17649;BME280;8943;51.110;-4.158;2023-04-03T08:38:12;102532.16;;;11.58;61.13
17649;BME280;8943;51.110;-4.158;2023-04-03T08:40:41;102538.22;;;11.62;61.29
17649;BME280;8943;51.110;-4.158;2023-04-03T08:43:27;102531.41;;;11.74;62.00
17649;BME280;8943;51.110;-4.158;2023-04-03T08:46:03;102531.84;;;11.83;62.11
17649;BME280;8943;51.110;-4.158;2023-04-03T08:48:41;102527.78;;;11.94;62.00
17649;BME280;8943;51.110;-4.158;2023-04-03T08:51:14;102526.34;;;12.04;61.86
17649;BME280;8943;51.110;-4.158;2023-04-03T08:53:46;102532.91;;;12.16;62.09
17649;BME280;8943;51.110;-4.158;2023-04-03T08:56:18;102524.25;;;12.28;62.48
17649;BME280;8943;51.110;-4.158;2023-04-03T08:58:50;102523.63;;;12.40;62.31
17649;BME280;8943;51.110;-4.158;2023-04-03T09:01:22;102526.72;;;12.48;62.19
17649;BME280;8943;51.110;-4.158;2023-04-03T09:03:53;102523.56;;;12.57;62.25
17649;BME280;8943;51.110;-4.158;2023-04-03T09:06:26;102519.88;;;12.60;62.13
17649;BME280;8943;51.110;-4.158;2023-04-03T09:09:07;102523.19;;;12.65;62.00
17649;BME280;8943;51.110;-4.158;2023-04-03T09:11:47;102519.31;;;12.71;62.38
17649;BME280;8943;51.110;-4.158;2023-04-03T09:14:25;102521.84;;;12.74;61.90
17649;BME280;8943;51.110;-4.158;2023-04-03T09:16:55;102514.41;;;12.79;61.77
17649;BME280;8943;51.110;-4.158;2023-04-03T09:19:35;102518.72;;;12.81;61.77
17649;BME280;8943;51.110;-4.158;2023-04-03T09:22:13;102518.47;;;12.86;61.96
17649;BME280;8943;51.110;-4.158;2023-04-03T09:24:45;102521.75;;;12.91;61.90
17649;BME280;8943;51.110;-4.158;2023-04-03T09:27:15;102522.22;;;12.99;62.06
17649;BME280;8943;51.110;-4.158;2023-04-03T09:29:44;102516.88;;;12.99;61.80
17649;BME280;8943;51.110;-4.158;2023-04-03T09:32:22;102511.06;;;13.07;61.66
17649;BME280;8943;51.110;-4.158;2023-04-03T09:34:53;102516.16;;;13.11;61.88
17649;BME280;8943;51.110;-4.158;2023-04-03T09:37:38;102507.03;;;13.15;62.06
17649;BME280;8943;51.110;-4.158;2023-04-03T09:40:29;102505.06;;;13.19;62.03
17649;BME280;8943;51.110;-4.158;2023-04-03T09:42:59;102501.19;;;13.25;61.93
17649;BME280;8943;51.110;-4.158;2023-04-03T09:45:29;102505.16;;;13.33;61.99
17649;BME280;8943;51.110;-4.158;2023-04-03T09:48:06;102493.25;;;13.39;61.95
17649;BME280;8943;51.110;-4.158;2023-04-03T09:50:54;102499.97;;;13.46;62.01
17649;BME280;8943;51.110;-4.158;2023-04-03T09:53:41;102497.03;;;13.51;61.91
17649;BME280;8943;51.110;-4.158;2023-04-03T09:56:19;102494.94;;;13.56;61.85
17649;BME280;8943;51.110;-4.158;2023-04-03T09:58:49;102495.47;;;13.62;62.24
17649;BME280;8943;51.110;-4.158;2023-04-03T10:01:25;102502.28;;;13.68;61.86
17649;BME280;8943;51.110;-4.158;2023-04-03T10:04:04;102496.47;;;13.76;61.90
17649;BME280;8943;51.110;-4.158;2023-04-03T10:06:36;102489.00;;;13.81;62.02
17649;BME280;8943;51.110;-4.158;2023-04-03T10:09:17;102491.09;;;13.91;61.91
17649;BME280;8943;51.110;-4.158;2023-04-03T10:12:01;102491.56;;;13.98;61.92
17649;BME280;8943;51.110;-4.158;2023-04-03T10:14:32;102491.41;;;14.01;61.87
17649;BME280;8943;51.110;-4.158;2023-04-03T10:17:08;102496.38;;;14.07;61.91
17649;BME280;8943;51.110;-4.158;2023-04-03T10:19:43;102481.84;;;14.11;61.81
17649;BME280;8943;51.110;-4.158;2023-04-03T10:22:18;102476.69;;;14.23;61.80
17649;BME280;8943;51.110;-4.158;2023-04-03T10:25:00;102478.72;;;14.33;61.68
17649;BME280;8943;51.110;-4.158;2023-04-03T10:27:39;102483.78;;;14.38;61.53
17649;BME280;8943;51.110;-4.158;2023-04-03T10:30:21;102478.94;;;14.45;61.28
17649;BME280;8943;51.110;-4.158;2023-04-03T10:32:59;102478.59;;;14.51;61.46
17649;BME280;8943;51.110;-4.158;2023-04-03T10:35:39;102477.44;;;14.55;61.42
17649;BME280;8943;51.110;-4.158;2023-04-03T10:38:16;102468.78;;;14.64;61.18
17649;BME280;8943;51.110;-4.158;2023-04-03T10:40:57;102470.25;;;14.70;61.40
17649;BME280;8943;51.110;-4.158;2023-04-03T10:43:33;102465.25;;;14.78;60.94
17649;BME280;8943;51.110;-4.158;2023-04-03T10:46:07;102462.09;;;14.85;61.32
17649;BME280;8943;51.110;-4.158;2023-04-03T10:48:51;102466.19;;;14.91;61.03
17649;BME280;8943;51.110;-4.158;2023-04-03T10:51:25;102467.63;;;14.97;61.13
17649;BME280;8943;51.110;-4.158;2023-04-03T10:54:00;102461.78;;;15.04;60.97
17649;BME280;8943;51.110;-4.158;2023-04-03T10:56:39;102462.50;;;15.06;60.79
17649;BME280;8943;51.110;-4.158;2023-04-03T10:59:17;102457.72;;;15.11;60.84
17649;BME280;8943;51.110;-4.158;2023-04-03T11:02:06;102455.41;;;15.19;61.19
17649;BME280;8943;51.110;-4.158;2023-04-03T11:04:39;102458.53;;;15.26;60.71
17649;BME280;8943;51.110;-4.158;2023-04-03T11:07:15;102449.44;;;15.29;60.69
17649;BME280;8943;51.110;-4.158;2023-04-03T11:10:23;102457.63;;;15.40;60.63
17649;BME280;8943;51.110;-4.158;2023-04-03T11:12:59;102452.06;;;15.43;60.48
17649;BME280;8943;51.110;-4.158;2023-04-03T11:15:31;102450.97;;;15.45;60.60
17649;BME280;8943;51.110;-4.158;2023-04-03T11:18:02;102447.56;;;15.56;60.52
17649;BME280;8943;51.110;-4.158;2023-04-03T11:20:36;102451.78;;;15.60;60.26
17649;BME280;8943;51.110;-4.158;2023-04-03T11:23:08;102455.91;;;15.66;60.48
17649;BME280;8943;51.110;-4.158;2023-04-03T11:25:46;102451.63;;;15.76;60.16
17649;BME280;8943;51.110;-4.158;2023-04-03T11:28:22;102444.03;;;15.83;60.28
17649;BME280;8943;51.110;-4.158;2023-04-03T11:30:58;102450.69;;;15.90;59.68
17649;BME280;8943;51.110;-4.158;2023-04-03T11:33:42;102446.63;;;15.97;59.41
17649;BME280;8943;51.110;-4.158;2023-04-03T11:36:19;102454.47;;;16.00;59.66
17649;BME280;8943;51.110;-4.158;2023-04-03T11:39:02;102456.53;;;16.09;59.41
17649;BME280;8943;51.110;-4.158;2023-04-03T11:41:35;102450.75;;;16.15;59.19
17649;BME280;8943;51.110;-4.158;2023-04-03T11:44:28;102443.31;;;16.19;59.56
17649;BME280;8943;51.110;-4.158;2023-04-03T11:46:58;102446.00;;;16.32;59.48
17649;BME280;8943;51.110;-4.158;2023-04-03T11:49:57;102437.38;;;16.39;59.33
17649;BME280;8943;51.110;-4.158;2023-04-03T11:55:53;102431.88;;;16.54;59.69
17649;BME280;8943;51.110;-4.158;2023-04-03T11:58:24;102426.69;;;16.63;59.46
17649;BME280;8943;51.110;-4.158;2023-04-03T12:01:13;102429.84;;;16.70;59.45
17649;BME280;8943;51.110;-4.158;2023-04-03T12:04:41;102422.06;;;16.78;59.62
17649;BME280;8943;51.110;-4.158;2023-04-03T12:08:23;102426.91;;;16.86;59.77
17649;BME280;8943;51.110;-4.158;2023-04-03T12:11:24;102416.13;;;16.98;59.55
17649;BME280;8943;51.110;-4.158;2023-04-03T12:14:04;102416.16;;;17.10;59.19
17649;BME280;8943;51.110;-4.158;2023-04-03T12:16:45;102412.03;;;17.17;58.97
17649;BME280;8943;51.110;-4.158;2023-04-03T12:19:32;102409.00;;;17.21;59.10
17649;BME280;8943;51.110;-4.158;2023-04-03T12:22:07;102404.25;;;17.25;58.70
17649;BME280;8943;51.110;-4.158;2023-04-03T12:24:43;102408.31;;;17.31;59.17
17649;BME280;8943;51.110;-4.158;2023-04-03T12:27:40;102386.63;;;17.32;58.56
17649;BME280;8943;51.110;-4.158;2023-04-03T12:30:18;102400.41;;;17.40;58.59
17649;BME280;8943;51.110;-4.158;2023-04-03T12:35:47;102397.16;;;17.59;59.11
17649;BME280;8943;51.110;-4.158;2023-04-03T12:38:40;102383.34;;;17.64;58.95
17649;BME280;8943;51.110;-4.158;2023-04-03T12:41:25;102382.75;;;17.71;58.53
17649;BME280;8943;51.110;-4.158;2023-04-03T12:44:06;102386.59;;;17.80;58.41
17649;BME280;8943;51.110;-4.158;2023-04-03T12:46:43;102373.00;;;17.82;58.53
17649;BME280;8943;51.110;-4.158;2023-04-03T12:49:26;102363.78;;;17.84;57.75
17649;BME280;8943;51.110;-4.158;2023-04-03T12:51:59;102372.38;;;17.89;58.30
17649;BME280;8943;51.110;-4.158;2023-04-03T12:54:31;102364.16;;;17.91;57.88
17649;BME280;8943;51.110;-4.158;2023-04-03T12:57:10;102368.84;;;18.00;57.94
17649;BME280;8943;51.110;-4.158;2023-04-03T12:59:38;102364.06;;;18.04;57.17
17649;BME280;8943;51.110;-4.158;2023-04-03T13:02:25;102364.19;;;18.13;57.41
17649;BME280;8943;51.110;-4.158;2023-04-03T13:04:57;102355.25;;;18.35;57.62
17649;BME280;8943;51.110;-4.158;2023-04-03T13:07:29;102352.69;;;18.45;57.52
17649;BME280;8943;51.110;-4.158;2023-04-03T13:10:14;102355.59;;;18.64;57.55
17649;BME280;8943;51.110;-4.158;2023-04-03T13:12:49;102350.19;;;18.75;57.61
17649;BME280;8943;51.110;-4.158;2023-04-03T13:15:19;102348.31;;;18.87;57.64
17649;BME280;8943;51.110;-4.158;2023-04-03T13:17:49;102346.19;;;19.02;57.44
17649;BME280;8943;51.110;-4.158;2023-04-03T13:20:24;102343.19;;;19.16;57.16
17649;BME280;8943;51.110;-4.158;2023-04-03T13:22:58;102338.47;;;19.29;57.37
17649;BME280;8943;51.110;-4.158;2023-04-03T13:25:30;102343.03;;;19.50;57.55
17649;BME280;8943;51.110;-4.158;2023-04-03T13:28:01;102346.03;;;19.68;57.43
17649;BME280;8943;51.110;-4.158;2023-04-03T13:30:40;102333.13;;;19.81;57.07
17649;BME280;8943;51.110;-4.158;2023-04-03T13:33:20;102338.59;;;19.91;57.08
17649;BME280;8943;51.110;-4.158;2023-04-03T13:35:57;102338.66;;;20.00;56.80
17649;BME280;8943;51.110;-4.158;2023-04-03T13:38:30;102336.44;;;20.15;57.09
17649;BME280;8943;51.110;-4.158;2023-04-03T13:41:03;102329.53;;;20.32;56.54
17649;BME280;8943;51.110;-4.158;2023-04-03T13:43:35;102334.16;;;20.41;56.42
17649;BME280;8943;51.110;-4.158;2023-04-03T13:46:20;102322.91;;;20.46;56.45
17649;BME280;8943;51.110;-4.158;2023-04-03T13:48:52;102325.50;;;20.57;56.39
17649;BME280;8943;51.110;-4.158;2023-04-03T13:51:24;102326.66;;;20.64;56.03
17649;BME280;8943;51.110;-4.158;2023-04-03T13:53:56;102319.84;;;20.70;56.46
17649;BME280;8943;51.110;-4.158;2023-04-03T13:56:30;102326.66;;;20.64;57.59
17649;BME280;8943;51.110;-4.158;2023-04-03T13:59:05;102323.97;;;20.74;57.15
17649;BME280;8943;51.110;-4.158;2023-04-03T14:01:40;102320.13;;;20.76;57.21
17649;BME280;8943;51.110;-4.158;2023-04-03T14:04:17;102313.88;;;20.95;57.52
17649;BME280;8943;51.110;-4.158;2023-04-03T14:06:48;102312.03;;;21.15;58.07
17649;BME280;8943;51.110;-4.158;2023-04-03T14:09:17;102304.50;;;21.38;58.66
17649;BME280;8943;51.110;-4.158;2023-04-03T14:11:47;102306.16;;;21.58;58.55
17649;BME280;8943;51.110;-4.158;2023-04-03T14:14:19;102309.81;;;21.87;58.37
17649;BME280;8943;51.110;-4.158;2023-04-03T14:16:51;102303.53;;;22.23;56.31
17649;BME280;8943;51.110;-4.158;2023-04-03T14:19:24;102296.66;;;22.74;56.66
17649;BME280;8943;51.110;-4.158;2023-04-03T14:21:55;102308.81;;;23.42;56.30
17649;BME280;8943;51.110;-4.158;2023-04-03T14:24:23;102311.91;;;24.25;56.24
17649;BME280;8943;51.110;-4.158;2023-04-03T14:26:53;102291.53;;;25.04;53.49
17649;BME280;8943;51.110;-4.158;2023-04-03T14:29:23;102304.47;;;25.83;52.63
17649;BME280;8943;51.110;-4.158;2023-04-03T14:31:52;102309.09;;;26.61;51.53
17649;BME280;8943;51.110;-4.158;2023-04-03T14:34:38;102313.13;;;27.42;49.20